Time;durP1;ratioP1;P1;durP2;ratioP2;P2;SDS_P1;SDS_P2;PMS_P1;PMS_P2;Temp;Humidity;BMP_temperature;BMP_pressure;BME280_temperature;BME280_humidity;BME280_pressure;Samples;Min_cycle;Max_cycle;Signal;HPM_P1;HPM_P2
2022/04/25 00:01:10;;;;;;;26.73;15.17;;;10.40;94.50;;;;;;5016375;28;20431;-76
2022/04/25 00:03:37;;;;;;;34.83;18.13;;;10.50;94.30;;;;;;5019736;28;20428;-76
2022/04/25 00:06:04;;;;;;;29.07;16.00;;;10.40;94.20;;;;;;5016838;28;20425;-75
2022/04/25 00:08:29;;;;;;;28.53;15.70;;;10.40;94.30;;;;;;5004774;28;451390;-76
2022/04/25 00:10:55;;;;;;;28.03;15.30;;;10.50;94.10;;;;;;5022755;28;20919;-77
2022/04/25 00:13:21;;;;;;;29.90;16.23;;;10.60;93.80;;;;;;5014232;28;20668;-75
2022/04/25 00:15:47;;;;;;;33.60;18.10;;;10.60;93.80;;;;;;5011593;28;20190;-77
2022/04/25 00:18:12;;;;;;;30.53;16.83;;;10.50;93.50;;;;;;5016113;28;20278;-75
2022/04/25 00:20:38;;;;;;;34.37;16.67;;;10.50;93.80;;;;;;5028543;28;20186;-75
2022/04/25 00:23:05;;;;;;;26.80;15.03;;;10.50;93.70;;;;;;5022479;28;20189;-76
2022/04/25 00:25:35;;;;;;;32.97;16.90;;;10.50;93.70;;;;;;5022680;28;20252;-76
2022/04/25 00:28:02;;;;;;;31.70;17.03;;;10.50;93.80;;;;;;5017853;28;20456;-76
2022/04/25 00:30:28;;;;;;;30.23;16.40;;;10.50;93.80;;;;;;5022414;28;20464;-75
2022/04/25 00:32:55;;;;;;;29.83;16.07;;;10.60;93.90;;;;;;5018365;28;20471;-76
2022/04/25 00:35:22;;;;;;;35.50;17.90;;;10.70;93.80;;;;;;5016534;28;20421;-76
2022/04/25 00:37:48;;;;;;;33.67;16.80;;;10.60;93.30;;;;;;5017066;28;20447;-76
2022/04/25 00:40:15;;;;;;;28.53;16.30;;;10.60;93.30;;;;;;5009735;28;20479;-76
2022/04/25 00:42:41;;;;;;;38.00;18.70;;;10.70;93.30;;;;;;5014150;28;20465;-76
2022/04/25 00:45:10;;;;;;;36.10;18.03;;;10.60;93.30;;;;;;5015773;28;20515;-76
2022/04/25 00:47:36;;;;;;;33.90;17.87;;;10.50;93.30;;;;;;5013592;28;20450;-76
2022/04/25 00:50:02;;;;;;;34.10;18.57;;;10.50;93.40;;;;;;5016013;28;20469;-75
2022/04/25 00:52:28;;;;;;;34.80;18.43;;;10.50;93.40;;;;;;5016495;28;20907;-75
2022/04/25 00:54:54;;;;;;;33.40;18.20;;;10.50;93.40;;;;;;5013586;28;20429;-75
2022/04/25 00:57:20;;;;;;;38.23;19.90;;;10.50;93.00;;;;;;5018596;28;20177;-75
2022/04/25 00:59:48;;;;;;;35.10;18.27;;;10.40;93.00;;;;;;5013382;28;20720;-76
2022/04/25 01:02:14;;;;;;;34.53;18.80;;;10.40;92.90;;;;;;5018093;28;20427;-76
2022/04/25 01:04:39;;;;;;;38.23;19.27;;;10.40;92.80;;;;;;5015708;28;20455;-75
2022/04/25 01:07:05;;;;;;;39.20;20.10;;;10.40;92.90;;;;;;5014182;28;20202;-76
2022/04/25 01:09:31;;;;;;;41.50;21.40;;;10.40;93.00;;;;;;5013403;28;20245;-76
2022/04/25 01:11:58;;;;;;;39.97;21.53;;;10.40;93.00;;;;;;5015477;28;20424;-76
2022/04/25 01:14:24;;;;;;;39.83;21.83;;;10.40;92.70;;;;;;5019187;28;20641;-75
2022/04/25 01:16:51;;;;;;;43.70;22.67;;;10.30;92.90;;;;;;5016549;28;20443;-75
2022/04/25 01:19:17;;;;;;;39.80;21.37;;;10.30;93.00;;;;;;5020619;28;20210;-77
2022/04/25 01:22:06;;;;;;;40.90;21.40;;;10.30;93.00;;;;;;5014437;28;20495;-76
2022/04/25 01:27:17;;;;;;;45.30;23.47;;;10.10;93.10;;;;;;5026202;28;20431;-76
2022/04/25 01:29:44;;;;;;;46.00;21.93;;;10.10;93.40;;;;;;5015692;28;20559;-75
2022/04/25 01:32:10;;;;;;;40.67;23.07;;;10.00;93.40;;;;;;5018841;28;20431;-77
2022/04/25 01:34:37;;;;;;;45.00;22.57;;;10.00;93.40;;;;;;5018188;28;20436;-76
2022/04/25 01:37:08;;;;;;;39.93;20.90;;;10.00;93.50;;;;;;5029631;28;20178;-75
2022/04/25 01:39:39;;;;;;;41.10;21.77;;;10.00;93.30;;;;;;5036959;28;20421;-75
2022/04/25 01:42:07;;;;;;;42.80;21.80;;;10.00;93.40;;;;;;5037135;28;20433;-75
2022/04/25 01:44:33;;;;;;;45.07;23.83;;;9.90;93.40;;;;;;5042034;28;20431;-75
2022/04/25 01:46:59;;;;;;;43.30;23.73;;;9.90;93.30;;;;;;5017717;28;20428;-76
2022/04/25 01:49:25;;;;;;;41.33;22.17;;;10.00;93.00;;;;;;5022475;28;20479;-75
2022/04/25 01:51:51;;;;;;;38.93;20.80;;;9.90;92.60;;;;;;5015675;28;20186;-77
2022/04/25 01:54:26;;;;;;;45.03;23.43;;;9.90;92.50;;;;;;5017732;28;20673;-76
2022/04/25 01:56:55;;;;;;;42.53;23.07;;;9.90;92.50;;;;;;5017864;28;20427;-76
2022/04/25 01:59:22;;;;;;;46.97;22.40;;;9.90;92.30;;;;;;5018062;28;20456;-76
2022/04/25 02:01:49;;;;;;;46.73;23.60;;;9.80;92.20;;;;;;5014851;28;20954;-76
2022/04/25 02:04:15;;;;;;;45.83;23.17;;;9.80;92.10;;;;;;5014847;28;20413;-75
2022/04/25 02:06:41;;;;;;;46.03;23.40;;;9.80;92.20;;;;;;5017272;28;20436;-76
2022/04/25 02:09:06;;;;;;;47.67;25.43;;;9.70;92.30;;;;;;5011815;28;20263;-77
2022/04/25 02:11:32;;;;;;;43.60;23.10;;;9.70;92.30;;;;;;5021987;28;20193;-76
2022/04/25 02:13:58;;;;;;;45.23;24.87;;;9.70;92.40;;;;;;5002385;28;20190;-76
2022/04/25 02:16:25;;;;;;;45.53;23.10;;;9.70;92.40;;;;;;5014513;28;20424;-75
2022/04/25 02:18:52;;;;;;;41.70;22.63;;;9.70;92.30;;;;;;5010418;28;20202;-76
2022/04/25 02:21:19;;;;;;;46.37;22.83;;;9.70;92.50;;;;;;5015037;28;20424;-76
2022/04/25 02:23:46;;;;;;;43.40;23.90;;;9.80;92.40;;;;;;5018080;28;20974;-77
2022/04/25 02:26:12;;;;;;;43.33;22.50;;;9.80;92.20;;;;;;5010741;28;20435;-76
2022/04/25 02:28:39;;;;;;;42.20;22.73;;;9.80;92.20;;;;;;5011369;28;20449;-76
2022/04/25 02:31:05;;;;;;;45.83;23.10;;;9.80;92.10;;;;;;5011188;28;21041;-77
2022/04/25 02:33:32;;;;;;;42.60;21.93;;;9.80;92.00;;;;;;5010302;28;20487;-77
2022/04/25 02:36:08;;;;;;;41.97;22.23;;;9.90;91.90;;;;;;5011794;28;20931;-76
2022/04/25 02:38:36;;;;;;;46.47;23.17;;;9.90;91.80;;;;;;5030916;28;20433;-75
2022/04/25 02:41:05;;;;;;;43.97;22.23;;;10.00;91.70;;;;;;5028829;28;20448;-76
2022/04/25 02:43:32;;;;;;;42.07;22.00;;;10.00;91.70;;;;;;5012409;28;20548;-75
2022/04/25 02:45:59;;;;;;;45.97;25.23;;;10.00;91.60;;;;;;5013857;28;20781;-76
2022/04/25 02:48:25;;;;;;;39.67;22.60;;;10.00;91.60;;;;;;5008071;28;20492;-76
2022/04/25 02:50:50;;;;;;;43.03;23.97;;;9.90;91.80;;;;;;5010135;28;20500;-76
2022/04/25 02:53:16;;;;;;;38.53;21.20;;;9.90;91.90;;;;;;5010679;28;20416;-76
2022/04/25 02:55:42;;;;;;;38.93;22.73;;;9.90;92.00;;;;;;5012041;28;20223;-75
2022/04/25 02:58:10;;;;;;;44.87;21.50;;;9.80;92.00;;;;;;5009326;28;20205;-77
2022/04/25 03:00:36;;;;;;;44.53;22.10;;;9.70;92.10;;;;;;5012319;28;20185;-77
2022/04/25 03:03:02;;;;;;;45.23;22.80;;;9.70;92.40;;;;;;5010666;28;20479;-76
2022/04/25 03:05:28;;;;;;;44.53;22.90;;;9.70;92.40;;;;;;5014294;28;20217;-75
2022/04/25 03:07:54;;;;;;;39.53;22.40;;;9.70;92.50;;;;;;5010712;28;20461;-76
2022/04/25 03:10:19;;;;;;;49.97;23.07;;;9.70;92.50;;;;;;5011638;28;20464;-76
2022/04/25 03:12:45;;;;;;;47.87;24.53;;;9.70;92.70;;;;;;5010689;28;20451;-76
2022/04/25 03:15:11;;;;;;;41.17;21.80;;;9.60;92.90;;;;;;5008132;28;20182;-77
2022/04/25 03:17:38;;;;;;;39.73;22.23;;;9.70;92.90;;;;;;5018060;28;20204;-76
2022/04/25 03:20:05;;;;;;;45.10;23.73;;;9.70;92.90;;;;;;5016427;28;20174;-76
2022/04/25 03:22:30;;;;;;;46.57;22.63;;;9.60;93.00;;;;;;5012778;28;20593;-76
2022/04/25 03:24:56;;;;;;;47.50;22.80;;;9.50;93.10;;;;;;5007630;28;21252;-75
2022/04/25 03:27:22;;;;;;;45.70;24.20;;;9.50;93.30;;;;;;5017615;28;20913;-75
2022/04/25 03:29:47;;;;;;;42.53;22.33;;;9.40;93.40;;;;;;5011883;28;20216;-76
2022/04/25 03:32:13;;;;;;;43.53;22.63;;;9.40;93.60;;;;;;5014072;28;20672;-76
2022/04/25 03:34:41;;;;;;;43.27;23.23;;;9.30;93.60;;;;;;5012996;28;20625;-76
2022/04/25 03:37:08;;;;;;;45.90;23.70;;;9.40;93.90;;;;;;5018494;28;20431;-76
2022/04/25 03:39:34;;;;;;;42.23;21.40;;;9.30;93.70;;;;;;5015273;28;20425;-76
2022/04/25 03:42:01;;;;;;;44.30;22.40;;;9.30;93.80;;;;;;5016496;28;20507;-76
2022/04/25 03:44:27;;;;;;;45.13;23.90;;;9.30;94.00;;;;;;5013641;28;20193;-75
2022/04/25 03:46:53;;;;;;;45.33;23.40;;;9.30;94.00;;;;;;5012270;28;20551;-76
2022/04/25 03:49:19;;;;;;;49.53;24.20;;;9.30;94.10;;;;;;5015643;28;20564;-75
2022/04/25 03:51:44;;;;;;;48.27;23.20;;;9.30;94.30;;;;;;5013184;28;20185;-74
2022/04/25 03:54:10;;;;;;;48.67;23.50;;;9.20;94.40;;;;;;5010741;28;20182;-74
2022/04/25 03:59:20;;;;;;;47.27;24.67;;;9.30;94.50;;;;;;5020592;28;20577;-75
2022/04/25 04:01:46;;;;;;;46.00;24.57;;;9.20;94.60;;;;;;5016889;28;20429;-74
2022/04/25 04:04:11;;;;;;;50.00;24.90;;;9.10;94.60;;;;;;5011947;28;20237;-76
2022/04/25 04:06:37;;;;;;;52.07;25.17;;;9.10;94.80;;;;;;5018049;28;20195;-74
2022/04/25 04:09:44;;;;;;;49.00;24.20;;;9.00;94.70;;;;;;5013700;28;20224;-75
2022/04/25 04:11:49;;;;;;;51.40;24.00;;;9.10;94.80;;;;;;5019129;28;20269;-75
2022/04/25 04:14:15;;;;;;;47.40;22.87;;;9.10;94.80;;;;;;5013330;28;20512;-76
2022/04/25 04:16:42;;;;;;;46.30;25.03;;;9.10;94.80;;;;;;5011973;28;20186;-75
2022/04/25 04:19:09;;;;;;;49.00;23.43;;;9.00;94.90;;;;;;5018728;28;20316;-76
2022/04/25 04:21:35;;;;;;;49.67;24.67;;;9.10;94.90;;;;;;5014577;28;20796;-74
2022/04/25 04:24:01;;;;;;;46.90;23.63;;;9.10;95.00;;;;;;5018272;28;20428;-76
2022/04/25 04:26:28;;;;;;;49.27;26.43;;;9.10;95.00;;;;;;5015653;28;20209;-76
2022/04/25 04:28:56;;;;;;;47.80;24.00;;;9.10;95.10;;;;;;5022035;28;20524;-76
2022/04/25 04:31:22;;;;;;;47.67;24.23;;;9.20;95.10;;;;;;5030128;28;20424;-76
2022/04/25 04:33:48;;;;;;;42.20;22.63;;;9.20;94.90;;;;;;5045125;28;20416;-76
2022/04/25 04:36:19;;;;;;;54.03;24.60;;;9.20;94.90;;;;;;5034778;28;20484;-75
2022/04/25 04:38:46;;;;;;;48.23;24.23;;;9.30;94.80;;;;;;5035604;28;20204;-75
2022/04/25 04:41:12;;;;;;;47.43;24.10;;;9.30;94.80;;;;;;5027600;28;20433;-77
2022/04/25 04:43:38;;;;;;;44.00;23.70;;;9.30;94.80;;;;;;5013907;28;20486;-75
2022/04/25 04:46:04;;;;;;;43.47;22.83;;;9.40;94.70;;;;;;5013722;28;20437;-75
2022/04/25 04:48:30;;;;;;;53.93;24.70;;;9.50;94.50;;;;;;5020342;28;20209;-77
2022/04/25 04:50:56;;;;;;;49.47;24.87;;;9.50;94.30;;;;;;5015906;28;20471;-77
2022/04/25 04:53:22;;;;;;;46.17;23.70;;;9.60;94.00;;;;;;5026997;28;20204;-77
2022/04/25 04:55:49;;;;;;;42.40;23.67;;;9.70;93.70;;;;;;5017424;28;20423;-77
2022/04/25 04:58:15;;;;;;;45.40;23.77;;;9.70;93.50;;;;;;5022611;28;20458;-76
2022/04/25 05:00:44;;;;;;;41.13;22.37;;;9.80;93.40;;;;;;5021273;28;21360;-77
2022/04/25 05:03:15;;;;;;;49.37;23.20;;;9.80;93.20;;;;;;5011101;28;20915;-77
2022/04/25 05:05:42;;;;;;;43.20;22.97;;;9.80;93.20;;;;;;5018666;28;20416;-76
2022/04/25 05:08:08;;;;;;;50.17;24.10;;;9.70;93.30;;;;;;5020983;28;20462;-76
2022/04/25 05:10:34;;;;;;;50.23;24.83;;;9.70;93.40;;;;;;5021322;28;20464;-76
2022/04/25 05:12:59;;;;;;;45.30;23.00;;;9.70;93.30;;;;;;5018219;28;20915;-77
2022/04/25 05:15:25;;;;;;;48.80;25.27;;;9.60;93.40;;;;;;5020043;28;20708;-76
2022/04/25 05:17:55;;;;;;;50.37;24.30;;;9.70;93.40;;;;;;5024323;28;20213;-76
2022/04/25 05:20:23;;;;;;;43.50;21.63;;;9.70;93.30;;;;;;5022367;28;20429;-75
2022/04/25 05:22:50;;;;;;;49.10;23.30;;;9.80;93.30;;;;;;5016910;28;20811;-76
2022/04/25 05:25:17;;;;;;;45.03;23.30;;;9.80;92.80;;;;;;5014390;28;20432;-76
2022/04/25 05:27:48;;;;;;;46.10;24.43;;;9.80;92.80;;;;;;5019991;28;20444;-77
2022/04/25 05:30:15;;;;;;;49.37;24.87;;;9.90;92.60;;;;;;5022086;28;20468;-77
2022/04/25 05:32:51;;;;;;;42.90;22.80;;;9.80;92.50;;;;;;5021254;28;20507;-76
2022/04/25 05:35:20;;;;;;;46.40;23.60;;;9.90;92.50;;;;;;5014957;28;20440;-77
2022/04/25 05:37:46;;;;;;;46.30;25.13;;;10.00;92.40;;;;;;5020573;28;20436;-77
2022/04/25 05:40:14;;;;;;;43.57;23.83;;;10.10;92.20;;;;;;5015208;28;20435;-76
2022/04/25 05:42:41;;;;;;;52.07;24.30;;;10.10;91.90;;;;;;5022350;28;20527;-77
2022/04/25 05:45:09;;;;;;;45.77;22.70;;;10.30;91.50;;;;;;5022155;28;20430;-78
2022/04/25 05:47:36;;;;;;;41.80;23.10;;;10.30;91.60;;;;;;5019387;28;20457;-76
2022/04/25 05:52:47;;;;;;;39.50;20.10;;;10.60;91.10;;;;;;5021661;28;20508;-76
2022/04/25 05:55:13;;;;;;;41.47;21.77;;;10.80;90.70;;;;;;5014849;28;20920;-76
2022/04/25 05:57:42;;;;;;;39.57;21.20;;;10.90;90.70;;;;;;5016278;28;20696;-76
2022/04/25 06:00:09;;;;;;;41.70;22.30;;;11.00;90.10;;;;;;5021210;28;20448;-77
2022/04/25 06:02:39;;;;;;;36.80;20.50;;;11.10;89.30;;;;;;5018648;28;20530;-76
2022/04/25 06:05:06;;;;;;;37.70;20.27;;;11.10;88.90;;;;;;5021954;28;20486;-76
2022/04/25 06:07:33;;;;;;;36.37;20.37;;;11.00;88.70;;;;;;5017686;28;20548;-77
2022/04/25 06:10:02;;;;;;;36.50;19.30;;;11.20;88.70;;;;;;5016704;28;21009;-77
2022/04/25 06:12:32;;;;;;;35.97;19.37;;;11.30;88.40;;;;;;5025566;28;20417;-75
2022/04/25 06:14:58;;;;;;;34.83;19.10;;;11.50;88.00;;;;;;5030306;28;20417;-77
2022/04/25 06:17:24;;;;;;;31.17;16.17;;;11.50;86.90;;;;;;5038195;28;20520;-78
2022/04/25 06:19:50;;;;;;;30.67;17.80;;;11.50;86.60;;;;;;5028136;28;20453;-77
2022/04/25 06:22:18;;;;;;;33.27;18.07;;;11.50;86.30;;;;;;5021968;28;20447;-76
2022/04/25 06:24:44;;;;;;;32.73;18.73;;;11.50;86.80;;;;;;5026197;28;20443;-76
2022/04/25 06:27:10;;;;;;;34.20;18.40;;;11.60;86.80;;;;;;5019792;28;20421;-76
2022/04/25 06:29:36;;;;;;;33.97;19.30;;;11.60;86.00;;;;;;5022819;28;20210;-78
2022/04/25 06:32:05;;;;;;;36.63;20.03;;;11.60;85.50;;;;;;5023959;28;20632;-77
2022/04/25 06:34:34;;;;;;;37.33;19.17;;;11.60;85.60;;;;;;5015629;28;20174;-77
2022/04/25 06:37:00;;;;;;;33.00;18.13;;;11.60;85.90;;;;;;5019662;28;20428;-76
2022/04/25 06:39:25;;;;;;;37.93;19.20;;;11.70;85.30;;;;;;5015666;28;20493;-77
2022/04/25 06:41:51;;;;;;;31.30;17.93;;;11.80;84.70;;;;;;5017510;28;20181;-77
2022/04/25 06:44:17;;;;;;;37.13;20.43;;;11.70;85.50;;;;;;5013347;28;20182;-75
2022/04/25 06:46:43;;;;;;;34.70;18.60;;;11.70;85.50;;;;;;5010801;28;21175;-76
2022/04/25 06:49:23;;;;;;;33.50;19.17;;;11.80;85.70;;;;;;5017575;28;20201;-75
2022/04/25 06:51:53;;;;;;;30.93;18.30;;;12.00;85.30;;;;;;5025548;28;20868;-75
2022/04/25 06:54:20;;;;;;;33.10;19.67;;;12.20;84.90;;;;;;5020622;28;20908;-75
2022/04/25 06:56:46;;;;;;;33.70;18.43;;;12.50;84.30;;;;;;5014147;28;20480;-75
2022/04/25 06:59:12;;;;;;;33.10;19.57;;;12.80;83.10;;;;;;5019321;28;20440;-75
2022/04/25 07:01:42;;;;;;;36.20;19.27;;;13.00;81.10;;;;;;5012715;28;20436;-75
2022/04/25 07:04:09;;;;;;;32.90;18.60;;;13.10;80.20;;;;;;5014005;28;20464;-76
2022/04/25 07:06:35;;;;;;;37.80;18.90;;;13.10;79.60;;;;;;5020799;28;20482;-75
2022/04/25 07:09:01;;;;;;;36.20;19.30;;;13.00;78.30;;;;;;5015547;28;20543;-76
2022/04/25 07:11:27;;;;;;;32.17;17.60;;;13.00;78.70;;;;;;5024602;28;20510;-75
2022/04/25 07:13:53;;;;;;;32.80;17.60;;;12.80;78.60;;;;;;5013354;28;20659;-75
2022/04/25 07:16:18;;;;;;;29.03;16.73;;;12.60;79.30;;;;;;5013793;28;20420;-75
2022/04/25 07:18:44;;;;;;;32.23;17.53;;;12.40;80.20;;;;;;5011603;28;20212;-77
2022/04/25 07:29:23;;;;;;;25.67;16.23;;;12.90;78.90;;;;;;5008052;28;20603;-74
2022/04/25 07:31:52;;;;;;;29.77;17.07;;;12.90;78.00;;;;;;5012499;28;20501;-77
2022/04/25 07:34:20;;;;;;;29.07;16.47;;;13.10;77.60;;;;;;5012846;28;20178;-76
2022/04/25 07:36:51;;;;;;;29.90;18.10;;;13.30;77.30;;;;;;5016116;28;20432;-77
2022/04/25 07:39:18;;;;;;;25.90;15.73;;;13.50;75.50;;;;;;5020218;28;20451;-78
2022/04/25 07:41:44;;;;;;;31.10;17.53;;;13.30;75.10;;;;;;5018311;28;20421;-77
2022/04/25 07:44:10;;;;;;;30.47;18.30;;;13.30;75.40;;;;;;5015921;28;20424;-76
2022/04/25 07:46:37;;;;;;;29.43;16.03;;;13.40;75.80;;;;;;5020658;28;20425;-76
2022/04/25 07:49:04;;;;;;;29.73;15.70;;;13.60;75.20;;;;;;5012547;28;20444;-75
2022/04/25 07:51:30;;;;;;;27.93;15.83;;;13.80;74.20;;;;;;5018142;28;20801;-75
2022/04/25 07:53:56;;;;;;;27.20;16.43;;;13.90;73.50;;;;;;5014898;28;20429;-77
2022/04/25 07:56:22;;;;;;;28.53;14.80;;;14.00;71.60;;;;;;5012848;28;20186;-77
2022/04/25 07:58:48;;;;;;;20.87;13.80;;;14.10;70.50;;;;;;5016374;28;20451;-76
2022/04/25 08:01:14;;;;;;;24.10;14.40;;;14.10;70.40;;;;;;5016223;28;20433;-77
2022/04/25 08:03:41;;;;;;;23.93;14.17;;;14.30;70.50;;;;;;5021803;28;20523;-75
2022/04/25 08:06:06;;;;;;;27.30;14.03;;;14.40;69.80;;;;;;5020053;28;20420;-77
2022/04/25 08:08:32;;;;;;;21.27;12.83;;;14.40;70.50;;;;;;5017483;28;20700;-75
2022/04/25 08:10:58;;;;;;;21.13;13.80;;;14.20;68.90;;;;;;5023480;28;20209;-77
2022/04/25 08:18:53;;;;;;;27.53;15.17;;;13.90;72.00;;;;;;5020121;28;20444;-74
2022/04/25 08:21:19;;;;;;;22.87;13.73;;;13.90;71.70;;;;;;5021041;28;20807;-75
2022/04/25 08:23:45;;;;;;;25.93;15.03;;;13.80;71.70;;;;;;5018948;28;20190;-77
2022/04/25 08:26:12;;;;;;;19.17;13.20;;;13.80;72.10;;;;;;5019411;28;20185;-77
2022/04/25 08:28:40;;;;;;;23.73;14.27;;;14.10;72.30;;;;;;5018934;28;20444;-76
2022/04/25 08:31:07;;;;;;;19.73;13.10;;;14.30;70.80;;;;;;5017321;28;20471;-78
2022/04/25 08:33:33;;;;;;;22.30;13.60;;;14.50;70.20;;;;;;5020149;28;20436;-77
2022/04/25 08:35:59;;;;;;;22.90;14.43;;;14.60;69.70;;;;;;5014036;28;20413;-77
2022/04/25 08:38:25;;;;;;;23.57;14.53;;;14.50;69.50;;;;;;5012517;28;20201;-77
2022/04/25 08:40:51;;;;;;;24.63;15.10;;;14.30;71.00;;;;;;5014576;28;20416;-76
2022/04/25 08:43:18;;;;;;;27.27;15.17;;;14.00;72.10;;;;;;5013892;28;20603;-78
2022/04/25 08:45:45;;;;;;;26.03;15.03;;;14.00;72.40;;;;;;5021503;28;20506;-77
2022/04/25 08:48:13;;;;;;;28.73;15.57;;;14.00;72.90;;;;;;5016541;28;20437;-77
2022/04/25 08:50:41;;;;;;;27.97;15.10;;;13.90;72.00;;;;;;5013393;28;20471;-76
2022/04/25 08:53:08;;;;;;;21.27;13.67;;;13.90;72.40;;;;;;5021125;28;20844;-76
2022/04/25 08:55:34;;;;;;;19.60;13.80;;;14.00;72.40;;;;;;5016161;28;20475;-78
2022/04/25 08:58:02;;;;;;;26.17;15.40;;;14.10;72.60;;;;;;5013508;28;20444;-77
2022/04/25 09:00:28;;;;;;;26.80;14.40;;;14.20;72.60;;;;;;5016149;28;20220;-77
2022/04/25 09:02:54;;;;;;;27.23;15.13;;;14.40;71.70;;;;;;5019851;28;20876;-76
2022/04/25 09:05:21;;;;;;;25.23;15.37;;;14.50;70.80;;;;;;5017237;28;20447;-75
2022/04/25 09:07:47;;;;;;;26.93;15.30;;;14.50;70.80;;;;;;5020809;28;20485;-77
2022/04/25 09:10:19;;;;;;;23.87;15.30;;;14.60;70.70;;;;;;5014075;28;20520;-77
2022/04/25 09:12:49;;;;;;;23.50;14.70;;;14.80;70.50;;;;;;5015280;28;20431;-75
2022/04/25 09:15:20;;;;;;;28.47;15.37;;;15.00;69.50;;;;;;5009584;28;20433;-77
2022/04/25 09:17:46;;;;;;;27.50;14.30;;;15.10;68.80;;;;;;5017909;28;20452;-77
2022/04/25 09:20:11;;;;;;;24.40;14.43;;;15.20;68.20;;;;;;5014949;28;20784;-76
2022/04/25 09:22:42;;;;;;;27.73;15.87;;;15.20;68.20;;;;;;5016769;28;20428;-76
2022/04/25 09:25:08;;;;;;;23.07;14.73;;;15.30;68.00;;;;;;5018749;28;20178;-76
2022/04/25 09:27:34;;;;;;;24.03;14.83;;;15.40;67.90;;;;;;5013751;28;20455;-76
2022/04/25 09:30:16;;;;;;;29.27;16.50;;;15.50;67.90;;;;;;5013660;28;20589;-75
2022/04/25 09:32:43;;;;;;;26.30;15.70;;;15.20;67.70;;;;;;5013433;28;20473;-75
2022/04/25 09:35:35;;;;;;;23.97;15.37;;;15.00;69.40;;;;;;5016115;28;20432;-77
2022/04/25 09:38:05;;;;;;;23.90;13.53;;;15.20;68.80;;;;;;5006756;28;20488;-76
2022/04/25 09:40:35;;;;;;;25.27;15.13;;;15.30;68.50;;;;;;5019359;28;20427;-77
2022/04/25 09:43:07;;;;;;;27.17;15.87;;;15.40;68.50;;;;;;5014207;28;20426;-76
2022/04/25 09:45:34;;;;;;;23.07;14.13;;;15.40;67.90;;;;;;5016190;28;20428;-76
2022/04/25 09:48:01;;;;;;;23.47;13.87;;;15.50;68.30;;;;;;5021268;28;20441;-79
2022/04/25 09:50:27;;;;;;;25.43;14.27;;;15.60;67.70;;;;;;5025129;28;20476;-77
2022/04/25 09:52:57;;;;;;;25.37;14.40;;;15.60;67.00;;;;;;5025423;28;20426;-75
2022/04/25 09:55:25;;;;;;;26.90;14.90;;;15.70;67.00;;;;;;5020111;28;20928;-75
2022/04/25 09:57:51;;;;;;;26.10;14.63;;;15.70;67.30;;;;;;5018478;28;20444;-78
2022/04/25 10:00:32;;;;;;;22.63;14.07;;;15.80;67.70;;;;;;5016800;28;20946;-77
2022/04/25 10:02:59;;;;;;;23.60;14.47;;;16.00;67.30;;;;;;5021593;28;20184;-75
2022/04/25 10:05:39;;;;;;;24.10;14.27;;;16.10;66.60;;;;;;5037352;28;20433;-75
2022/04/25 10:08:07;;;;;;;20.43;14.10;;;16.20;65.70;;;;;;5028320;28;20466;-76
2022/04/25 10:10:34;;;;;;;21.70;14.93;;;16.10;65.40;;;;;;5031083;28;20474;-75
2022/04/25 10:13:01;;;;;;;25.20;14.10;;;15.90;66.30;;;;;;5034109;28;20433;-75
2022/04/25 10:15:27;;;;;;;21.80;13.47;;;15.50;67.50;;;;;;5026132;28;20561;-76
2022/04/25 10:17:54;;;;;;;20.70;13.63;;;15.60;67.90;;;;;;5034942;28;20588;-75
2022/04/25 10:20:20;;;;;;;26.80;13.90;;;15.90;67.90;;;;;;5032174;28;20431;-75
2022/04/25 10:22:46;;;;;;;25.90;15.50;;;16.10;66.90;;;;;;5037531;28;20466;-75
2022/04/25 10:25:12;;;;;;;21.50;14.13;;;16.30;64.80;;;;;;5034285;28;20185;-74
2022/04/25 10:27:42;;;;;;;21.77;14.37;;;16.30;64.80;;;;;;5030262;28;20440;-76
2022/04/25 10:30:16;;;;;;;24.67;14.37;;;16.10;63.90;;;;;;5028475;28;20300;-77
2022/04/25 10:32:42;;;;;;;23.07;13.60;;;15.70;65.60;;;;;;5034278;28;20517;-77
2022/04/25 10:35:29;;;;;;;22.60;14.37;;;15.70;66.30;;;;;;5030706;28;20433;-75
2022/04/25 10:37:55;;;;;;;20.97;13.63;;;15.80;65.70;;;;;;5035897;28;20444;-75
2022/04/25 10:46:13;;;;;;;24.20;15.43;;;16.40;63.90;;;;;;5026731;28;20444;-75
2022/04/25 10:49:09;;;;;;;20.80;13.57;;;16.40;63.90;;;;;;5033394;28;20595;-77
2022/04/25 10:51:41;;;;;;;25.20;15.07;;;16.30;64.10;;;;;;5039987;28;20464;-77
2022/04/25 10:54:08;;;;;;;25.00;15.67;;;16.10;64.50;;;;;;5025516;28;20413;-76
2022/04/25 10:56:35;;;;;;;26.83;15.53;;;16.10;65.00;;;;;;5032042;28;20436;-75
2022/04/25 10:59:27;;;;;;;26.47;16.47;;;16.20;64.10;;;;;;5040523;28;20434;-75
2022/04/25 11:01:56;;;;;;;26.20;15.17;;;16.40;63.80;;;;;;5032384;28;20516;-74
2022/04/25 11:04:22;;;;;;;21.73;13.77;;;16.50;64.10;;;;;;5033331;28;20409;-76
2022/04/25 11:07:08;;;;;;;23.53;15.40;;;16.50;64.10;;;;;;5039451;28;20491;-76
2022/04/25 11:09:39;;;;;;;23.60;14.63;;;16.50;63.80;;;;;;5036700;28;20217;-75
2022/04/25 11:12:06;;;;;;;22.23;14.90;;;16.70;63.20;;;;;;5031163;28;20409;-76
2022/04/25 11:14:32;;;;;;;30.53;16.30;;;16.80;63.10;;;;;;5028036;28;20436;-78
2022/04/25 11:17:14;;;;;;;22.07;14.40;;;16.80;62.80;;;;;;5036338;28;20425;-76
2022/04/25 11:19:46;;;;;;;22.00;14.50;;;16.90;62.20;;;;;;5027871;28;20420;-75
2022/04/25 11:22:40;;;;;;;25.47;15.47;;;17.10;61.60;;;;;;5029334;28;20428;-76
2022/04/25 11:25:25;;;;;;;29.83;16.27;;;17.00;60.90;;;;;;5034299;28;20443;-76
2022/04/25 11:28:04;;;;;;;23.27;15.33;;;16.60;60.70;;;;;;5030668;28;20439;-76
2022/04/25 11:30:31;;;;;;;27.63;15.23;;;16.40;62.00;;;;;;5029943;28;20469;-78
2022/04/25 11:33:05;;;;;;;26.07;14.73;;;16.60;61.90;;;;;;5021301;28;20462;-77
2022/04/25 11:35:31;;;;;;;32.77;17.27;;;16.60;61.50;;;;;;5022288;28;20820;-78
2022/04/25 11:37:58;;;;;;;24.43;14.97;;;16.50;61.60;;;;;;5016092;28;20433;-76
2022/04/25 11:40:24;;;;;;;25.23;13.70;;;16.40;62.50;;;;;;5019388;28;20929;-79
2022/04/25 11:42:50;;;;;;;22.50;14.30;;;16.40;62.50;;;;;;5015183;28;20437;-76
2022/04/25 11:45:16;;;;;;;22.40;14.30;;;16.20;63.40;;;;;;5022769;28;20440;-76
2022/04/25 11:47:42;;;;;;;23.80;15.70;;;15.90;63.50;;;;;;5019244;28;20441;-76
2022/04/25 11:50:11;;;;;;;20.40;13.73;;;15.70;63.70;;;;;;5012972;28;20589;-77
2022/04/25 11:52:48;;;;;;;26.50;14.80;;;15.50;65.10;;;;;;5012362;28;20178;-76
2022/04/25 11:55:17;;;;;;;23.70;15.43;;;15.50;65.80;;;;;;5013983;28;20437;-76
2022/04/25 11:57:45;;;;;;;24.63;14.20;;;15.40;66.40;;;;;;5019487;28;20501;-78
2022/04/25 12:00:16;;;;;;;27.93;14.63;;;15.30;67.60;;;;;;5017789;28;20430;-76
2022/04/25 12:02:43;;;;;;;23.53;14.03;;;15.20;68.30;;;;;;5022097;28;20551;-76
2022/04/25 12:05:10;;;;;;;22.67;13.93;;;15.00;71.60;;;;;;5014523;28;20436;-78
2022/04/25 12:07:37;;;;;;;23.83;13.50;;;14.70;73.70;;;;;;5014532;28;20543;-76
2022/04/25 12:15:40;;;;;;;30.33;16.20;;;13.90;78.40;;;;;;5006987;28;20902;-77
2022/04/25 12:18:22;;;;;;;29.20;16.90;;;13.60;80.50;;;;;;5009951;28;20441;-76
2022/04/25 12:21:05;;;;;;;25.10;15.30;;;13.50;80.60;;;;;;5011458;28;20432;-76
2022/04/25 12:23:39;;;;;;;28.77;15.90;;;13.50;79.30;;;;;;5012085;28;20425;-76
2022/04/25 12:26:06;;;;;;;31.00;18.40;;;13.70;81.50;;;;;;5007535;28;20444;-75
2022/04/25 12:28:37;;;;;;;31.27;18.47;;;13.90;82.50;;;;;;5014679;28;20452;-76
2022/04/25 12:31:10;;;;;;;27.70;18.03;;;14.00;82.70;;;;;;5012104;28;20468;-76
2022/04/25 12:33:44;;;;;;;29.10;17.27;;;14.10;78.60;;;;;;5016450;28;20789;-79
2022/04/25 12:36:22;;;;;;;28.30;17.67;;;14.30;79.20;;;;;;5014591;28;20603;-77
2022/04/25 12:38:57;;;;;;;25.50;15.07;;;14.30;77.30;;;;;;5019019;28;20833;-77
2022/04/25 12:41:32;;;;;;;31.00;16.90;;;14.50;78.40;;;;;;5015960;28;21150;-77
2022/04/25 12:44:15;;;;;;;25.03;15.27;;;14.90;79.50;;;;;;5018913;28;20431;-76
2022/04/25 12:46:41;;;;;;;26.43;16.60;;;15.20;76.50;;;;;;5018786;28;20426;-77
2022/04/25 12:49:15;;;;;;;27.50;16.50;;;15.20;75.40;;;;;;5018341;28;20437;-77
2022/04/25 12:52:02;;;;;;;27.07;15.30;;;14.90;74.30;;;;;;5016296;28;20427;-75
2022/04/25 12:54:30;;;;;;;22.37;14.17;;;15.10;75.40;;;;;;5020463;28;20527;-77
2022/04/25 12:57:15;;;;;;;27.33;16.40;;;14.80;73.50;;;;;;5018390;28;20424;-76
2022/04/25 12:59:43;;;;;;;25.43;14.17;;;14.80;74.00;;;;;;5020721;28;20503;-77
2022/04/25 13:02:15;;;;;;;28.43;14.60;;;14.90;75.10;;;;;;5012041;28;20838;-76
2022/04/25 13:04:53;;;;;;;24.33;14.87;;;15.10;74.50;;;;;;5016666;28;20424;-76
2022/04/25 13:07:23;;;;;;;30.33;16.67;;;15.50;74.80;;;;;;5020632;28;20448;-76
2022/04/25 13:09:53;;;;;;;23.87;14.27;;;15.90;75.50;;;;;;5019532;28;20470;-77